ADDS METAR Data INFO
IDs: Format: Raw Decoded Include TAF

Data at: 0057 UTC 22 Oct 2017

KOEB 220034Z AUTO 17004KT 10SM CLR 18/05 A3014 RMK AO2 T01840050
KOEB 220014Z AUTO 16005KT 10SM CLR 19/05 A3013 RMK AO2 T01890050
KOEB 212354Z AUTO 15005KT 10SM CLR 19/05 A3013 RMK AO2 T01910050 10238 20191
KOEB 212334Z AUTO 16004KT 10SM CLR 19/05 A3013 RMK AO2 T01910051
KOEB 212314Z AUTO 14004KT 10SM CLR 20/05 A3013 RMK AO2 T01960052
KOEB 212254Z AUTO 16004KT 10SM CLR 20/04 A3013 RMK AO2 T02010043
KOEB 212234Z AUTO 17005KT 10SM CLR 21/04 A3013 RMK AO2 T02070043
KOEB 212214Z AUTO 17006KT 10SM CLR 21/04 A3013 RMK AO2 T02140037
KOEB 212155Z AUTO 18007KT 10SM CLR 22/03 A3013 RMK AO2 T02170034
KOEB 212134Z AUTO 17007KT 10SM CLR 22/04 A3013 RMK AO2 T02190043
KOEB 212114Z AUTO 18008KT 10SM CLR 23/01 A3013 RMK AO2 T02300007
KOEB 212054Z AUTO 17009G15KT 10SM CLR 23/03 A3012 RMK AO2 T02320030
KOEB 212034Z AUTO 18010KT 10SM CLR 23/05 A3013 RMK AO2 T02280050
KOEB 212014Z AUTO 19006KT 10SM CLR 23/05 A3013 RMK AO2 T02320053
KOEB 211954Z AUTO 17009G16KT 10SM CLR 24/04 A3013 RMK AO2 T02350042
KOEB 211934Z AUTO 17006G14KT 10SM CLR 23/05 A3013 RMK AO2 T02330052
KOEB 211914Z AUTO 17012KT 10SM CLR 24/05 A3014 RMK AO2 T02380053
KOEB 211854Z AUTO 18010G14KT 10SM CLR 23/06 A3014 RMK AO2 T02320060
KOEB 211834Z AUTO 18007G15KT 150V210 10SM CLR 22/06 A3015 RMK AO2 T02240064
KOEB 211814Z AUTO 17009KT 10SM CLR 22/09 A3014 RMK AO2 T02210087
KOEB 211754Z AUTO 16004KT 10SM CLR 21/09 A3016 RMK AO2 T02100086 10215 20133
KOEB 211734Z AUTO 19005KT 10SM CLR 21/08 A3016 RMK AO2 T02140077
KOEB 211714Z AUTO 19006KT 10SM CLR 21/07 A3017 RMK AO2 T02140073
KOEB 211654Z AUTO 18007KT 10SM CLR 21/08 A3018 RMK AO2 T02060084
KOEB 211634Z AUTO 18006KT 150V220 10SM CLR 21/09 A3018 RMK AO2 T02050087
KOEB 211614Z AUTO 18008KT 150V210 10SM CLR 20/09 A3018 RMK AO2 T02020085
KOEB 211554Z AUTO 19005KT 10SM CLR 20/09 A3019 RMK AO2 T01970087
KOEB 211535Z AUTO 18006KT 10SM CLR 20/10 A3019 RMK AO2 T01980097
KOEB 211514Z AUTO 17005KT 10SM CLR 19/10 A3019 RMK AO2 T01850099
KOEB 211454Z AUTO 18004KT 10SM CLR 18/10 A3019 RMK AO2 T01800098
KOEB 211434Z AUTO 18005KT 10SM CLR 18/10 A3019 RMK AO2 T01780097
KOEB 211414Z AUTO 16003KT 10SM CLR 17/11 A3019 RMK AO2 T01660110
KOEB 211355Z AUTO 15005KT 10SM CLR 16/11 A3019 RMK AO2 T01550112
KOEB 211334Z AUTO 16004KT 10SM CLR 15/11 A3019 RMK AO2 T01480107
KOEB 211314Z AUTO 16004KT 10SM CLR 14/11 A3019 RMK AO2 T01410105
KOEB 211254Z AUTO 15003KT 10SM CLR 14/10 A3018 RMK AO2 T01400104
KOEB 211234Z AUTO 16004KT 10SM CLR 13/10 A3018 RMK AO2 T01340101
KOEB 211214Z AUTO 15006KT 10SM CLR 14/10 A3017 RMK AO2 T01370100
KOEB 211154Z AUTO 17005KT 10SM CLR 14/10 A3017 RMK AO2 T01360100 10156 20125
KOEB 211134Z AUTO 16004KT 10SM CLR 13/10 A3017 RMK AO2 T01310100
KOEB 211114Z AUTO 15005KT 10SM CLR 13/10 A3017 RMK AO2 T01310097
KOEB 211054Z AUTO 16004KT 10SM CLR 13/10 A3017 RMK AO2 T01270096
KOEB 211034Z AUTO 16003KT 10SM CLR 13/10 A3017 RMK AO2 T01340097
KOEB 211015Z AUTO 00000KT 10SM CLR 13/10 A3016 RMK AO2 T01260096
KOEB 210954Z AUTO 15003KT 10SM CLR 13/10 A3016 RMK AO2 T01320095
KOEB 210934Z AUTO 00000KT 10SM CLR 14/10 A3016 RMK AO2 T01360095
KOEB 210915Z AUTO 16003KT 10SM CLR 14/09 A3016 RMK AO2 T01360094
KOEB 210854Z AUTO 00000KT 10SM CLR 13/09 A3015 RMK AO2 T01270094
KOEB 210834Z AUTO 00000KT 10SM CLR 14/09 A3015 RMK AO2 T01420092
KOEB 210814Z AUTO 16004KT 10SM CLR 14/09 A3015 RMK AO2 T01400092
KOEB 210754Z AUTO 00000KT 10SM CLR 14/09 A3015 RMK AO2 T01400092
KOEB 210733Z AUTO 00000KT 10SM CLR 15/09 A3015 RMK AO2 T01470090
KOEB 210714Z AUTO 21003KT 10SM CLR 15/09 A3015 RMK AO2 T01470090
KOEB 210654Z AUTO 17003KT 10SM CLR 15/09 A3014 RMK AO2 T01460090
KOEB 210634Z AUTO 18004KT 10SM CLR 16/09 A3014 RMK AO2 T01560086
KOEB 210614Z AUTO 18004KT 10SM CLR 15/09 A3014 RMK AO2 T01540090
KOEB 210554Z AUTO 17005KT 10SM CLR 15/09 A3014 RMK AO2 T01460093 10166 20108 402450040
KOEB 210534Z AUTO 16005KT 10SM CLR 15/09 A3014 RMK AO2 T01460093
KOEB 210514Z AUTO 17005KT 10SM CLR 15/10 A3014 RMK AO2 T01450095
KOEB 210454Z AUTO 17005KT 10SM CLR 14/10 A3014 RMK AO2 T01430098
KOEB 210434Z AUTO 17004KT 10SM CLR 14/10 A3014 RMK AO2 T01360101
KOEB 210414Z AUTO 16004KT 10SM CLR 14/10 A3014 RMK AO2 T01350102
KOEB 210354Z AUTO 16004KT 10SM CLR 14/10 A3014 RMK AO2 T01370102
KOEB 210334Z AUTO 16004KT 10SM CLR 14/10 A3014 RMK AO2 T01400104
KOEB 210314Z AUTO 16005KT 10SM CLR 14/11 A3014 RMK AO2 T01400105
KOEB 210254Z AUTO 16004KT 10SM CLR 12/10 A3014 RMK AO2 T01180101
KOEB 210234Z AUTO 16003KT 10SM CLR 12/10 A3014 RMK AO2 T01220102
KOEB 210215Z AUTO 17003KT 10SM CLR 13/11 A3014 RMK AO2 T01330109
KOEB 210154Z AUTO 15003KT 10SM CLR 12/10 A3013 RMK AO2 T01160101
KOEB 210134Z AUTO 00000KT 10SM CLR 13/11 A3013 RMK AO2 T01330106
KOEB 210114Z AUTO 15004KT 10SM CLR 15/11 A3013 RMK AO2 T01520106
KOEB 210054Z AUTO 16004KT 10SM CLR 16/11 A3013 RMK AO2 T01600105
KOEB 210034Z AUTO 15004KT 10SM CLR 16/11 A3013 RMK AO2 T01560108
KOEB 210014Z AUTO 15004KT 10SM CLR 16/11 A3014 RMK AO2 T01560108
KOEB 202354Z AUTO 15003KT 10SM CLR 17/11 A3014 RMK AO2 T01660106 10245 20166
KOEB 202334Z AUTO 15003KT 10SM CLR 18/11 A3014 RMK AO2 T01750105
KOEB 202314Z AUTO 14003KT 10SM CLR 19/11 A3013 RMK AO2 T01890105
KOEB 202254Z AUTO 00000KT 10SM CLR 21/10 A3013 RMK AO2 T02050096
KOEB 202234Z AUTO 16003KT 10SM CLR 21/10 A3014 RMK AO2 T02100097
KOEB 202214Z AUTO 17004KT 10SM CLR 22/09 A3014 RMK AO2 T02170094
KOEB 202154Z AUTO 18003KT 10SM CLR 23/09 A3014 RMK AO2 T02310086
KOEB 202135Z AUTO 17005KT 10SM CLR 23/09 A3014 RMK AO2 T02320090
KOEB 202114Z AUTO 19004KT 10SM CLR 24/08 A3015 RMK AO2 T02380084
KOEB 202054Z AUTO 19004KT 10SM CLR 23/08 A3015 RMK AO2 T02310084
KOEB 202034Z AUTO 20005KT 10SM CLR 24/08 A3015 RMK AO2 T02350081
KOEB 202014Z AUTO 18005KT 10SM CLR 24/09 A3016 RMK AO2 T02360087
KOEB 201955Z AUTO 21006KT 10SM CLR 24/09 A3016 RMK AO2 T02380085
KOEB 201934Z AUTO 23009G15KT 10SM CLR 24/08 A3017 RMK AO2 T02430082
KOEB 201914Z AUTO 22007G14KT 10SM CLR 24/08 A3017 RMK AO2 T02440083
KOEB 201854Z AUTO 18006KT 10SM CLR 24/09 A3017 RMK AO2 T02430085
KOEB 201834Z AUTO 20008KT 160V220 10SM CLR 24/08 A3018 RMK AO2 T02390082
KOEB 201814Z AUTO 20006G17KT 10SM CLR 24/08 A3019 RMK AO2 T02350080
KOEB 201754Z AUTO 21009G14KT 10SM CLR 23/08 A3020 RMK AO2 T02330082 10233 20094
KOEB 201734Z AUTO 17007KT 10SM CLR 23/09 A3021 RMK AO2 T02280086
KOEB 201714Z AUTO 18008KT 10SM CLR 23/08 A3022 RMK AO2 T02280084
KOEB 201654Z AUTO 20005KT 10SM CLR 22/08 A3023 RMK AO2 T02210078
KOEB 201634Z AUTO 17006KT 10SM CLR 21/07 A3024 RMK AO2 T02110074
KOEB 201614Z AUTO 16004KT 10SM CLR 21/07 A3025 RMK AO2 T02080071
KOEB 201554Z AUTO 15005KT 10SM CLR 20/06 A3025 RMK AO2 T01950062
KOEB 201534Z AUTO 15005KT 10SM CLR 19/06 A3025 RMK AO2 T01890056
KOEB 201514Z AUTO 14005KT 10SM CLR 18/04 A3026 RMK AO2 T01760042
KOEB 201454Z AUTO 17004KT 10SM CLR 17/03 A3026 RMK AO2 T01670033
KOEB 201434Z AUTO 16005KT 10SM CLR 15/03 A3026 RMK AO2 T01540028
KOEB 201414Z AUTO 16007KT 10SM CLR 14/02 A3026 RMK AO2 T01410019
KOEB 201354Z AUTO 16006KT 10SM CLR 13/01 A3026 RMK AO2 T01290013
KOEB 201334Z AUTO 15008KT 10SM CLR 12/01 A3027 RMK AO2 T01180008
KOEB 201314Z AUTO 16007KT 10SM CLR 11/02 A3026 RMK AO2 T01100017